CDT,Max TemperatureF,Mean TemperatureF,Min TemperatureF,Max Dew PointF,MeanDew PointF,Min DewpointF,Max Humidity, Mean Humidity, Min Humidity, Max Sea Level PressureIn, Mean Sea Level PressureIn, Min Sea Level PressureIn, Max VisibilityMiles, Mean VisibilityMiles, Min VisibilityMiles, Max Wind SpeedMPH, Mean Wind SpeedMPH, Max Gust SpeedMPH,PrecipitationIn, CloudCover, Events, WindDirDegrees
2013-4-1,86,73,60,62,58,56,90,64,37,30.06,29.99,29.88,10,10,10,7,3,,0.00,4,,23
2013-4-2,76,65,53,,,,,,,,,,,,,23,6,37,2.10,,,
2013-4-3,57,53,49,51,49,46,96,90,83,30.15,30.07,30.00,10,6,2,17,7,26,0.36,8,Rain-Thunderstorm,341
2013-4-4,62,54,46,46,42,38,86,68,49,30.24,30.17,30.12,10,10,10,14,7,22,0.00,6,,336
2013-4-5,73,57,40,47,42,37,89,62,35,30.29,30.18,30.07,10,10,10,12,4,17,0.00,0,,109
2013-4-6,82,68,53,58,53,47,93,66,39,30.07,29.97,29.85,10,10,8,17,9,28,0.00,3,,180
2013-4-7,84,74,63,62,60,58,93,70,47,29.94,29.86,29.75,10,10,9,17,8,28,0.00,7,,168
2013-4-8,77,72,67,66,63,60,87,76,64,29.82,29.74,29.67,10,9,6,20,10,29,0.00,8,,159
2013-4-9,86,78,70,68,66,64,84,68,51,29.72,29.66,29.58,10,8,7,17,11,33,0.00,7,,150
2013-4-10,74,60,45,68,49,39,93,77,61,29.98,29.83,29.61,10,8,1,20,10,30,0.30,7,Rain,335
2013-4-11,68,56,43,43,38,36,83,59,34,30.00,29.91,29.82,10,10,5,16,5,26,0.06,2,Rain,33
2013-4-12,81,63,44,51,43,39,89,56,23,30.01,29.93,29.85,10,10,10,12,4,19,0.00,0,,139
2013-4-13,78,66,54,56,51,47,89,63,36,29.96,29.88,29.78,10,10,10,12,5,19,0.00,2,,135
2013-4-14,87,73,58,67,60,54,90,68,45,29.81,29.70,29.59,10,10,7,16,6,25,0.00,3,,178
2013-4-15,88,79,70,66,65,63,90,68,45,29.81,29.73,29.68,10,8,6,16,9,23,0.00,4,,160
2013-4-16,85,78,70,71,66,62,93,74,55,29.90,29.83,29.78,9,7,3,18,9,27,T,4,,153
2013-4-17,85,79,73,72,69,66,93,76,58,29.89,29.78,29.65,8,6,3,18,10,29,0.01,8,Rain,152
2013-4-18,75,63,50,71,52,35,89,66,43,30.13,29.86,29.63,10,9,2,21,10,31,0.36,6,Rain,350
2013-4-19,69,57,45,34,27,19,62,39,15,30.30,30.23,30.13,10,10,10,17,7,27,0.00,0,,7
2013-4-20,73,57,41,45,33,27,76,48,19,30.24,30.15,30.01,10,10,10,17,6,27,0.00,0,,154
2013-4-21,78,64,50,55,49,45,83,61,39,30.16,30.10,30.01,10,10,10,12,5,18,0.00,3,,115
2013-4-22,85,71,56,60,57,54,93,67,40,30.10,30.01,29.85,10,9,4,14,7,23,0.00,2,,175
2013-4-23,79,64,49,64,58,40,87,70,52,30.12,29.93,29.83,10,10,10,15,7,25,T,8,Rain,154
2013-4-24,65,55,45,40,36,31,76,55,34,30.28,30.22,30.15,10,10,10,18,9,29,T,7,Rain,5
2013-4-25,70,63,56,43,41,38,57,47,36,30.33,30.25,30.18,10,10,10,10,5,17,0.00,8,,77
2013-4-26,79,70,60,69,63,44,100,74,48,30.17,30.10,30.00,10,6,0,13,5,22,0.03,8,Fog-Rain,167
2013-4-27,85,77,69,67,65,63,90,71,51,30.09,30.02,29.92,10,10,9,13,4,18,0.00,7,Thunderstorm,146
2013-4-28,87,75,62,65,61,55,93,65,37,30.04,29.95,29.83,10,10,9,12,4,17,0.00,3,,136
2013-4-29,86,77,67,65,63,59,87,67,47,29.94,29.87,29.77,10,9,6,20,5,29,0.00,4,Thunderstorm,159
2013-4-30,84,74,64,65,62,61,93,70,47,29.86,29.80,29.71,10,9,5,12,4,17,0.00,5,,140